Time;durP1;ratioP1;P1;durP2;ratioP2;P2;SDS_P1;SDS_P2;PMS_P1;PMS_P2;Temp;Humidity;BMP_temperature;BMP_pressure;BME280_temperature;BME280_humidity;BME280_pressure;Samples;Min_cycle;Max_cycle;Signal;HPM_P1;HPM_P2
2023/01/18 00:01:06;;;;;;;18.17;4.32;;;;;;;12.35;79.52;99798.56;4956782;28;20054;-81
2023/01/18 00:03:34;;;;;;;17.05;3.78;;;;;;;12.36;79.24;99800.22;4958446;28;20044;-80
2023/01/18 00:06:02;;;;;;;21.23;4.53;;;;;;;12.48;78.96;99813.16;4980711;28;20054;-79
2023/01/18 00:08:28;;;;;;;15.50;3.55;;;;;;;12.48;78.51;99797.00;4963742;28;20046;-81
2023/01/18 00:10:54;;;;;;;22.05;3.97;;;;;;;12.52;78.22;99809.06;4964903;28;20043;-81
2023/01/18 00:13:19;;;;;;;17.95;3.75;;;;;;;12.58;78.24;99827.16;4942231;28;20146;-80
2023/01/18 00:15:45;;;;;;;17.08;3.88;;;;;;;12.74;77.83;99810.72;4985921;28;20065;-81
2023/01/18 00:18:11;;;;;;;16.25;3.65;;;;;;;12.75;77.51;99811.53;4971247;28;20038;-80
2023/01/18 00:20:37;;;;;;;15.73;3.67;;;;;;;12.71;77.17;99811.09;4968667;28;20047;-80
2023/01/18 00:23:03;;;;;;;13.60;3.40;;;;;;;12.70;77.52;99820.22;4965552;28;20042;-79
2023/01/18 00:25:29;;;;;;;18.48;3.78;;;;;;;12.66;77.31;99783.88;4970547;28;20348;-80
2023/01/18 00:27:55;;;;;;;;;;;;;;;12.83;77.12;99820.31;4970466;28;20034;-82
2023/01/18 00:30:23;;;;;;;17.15;3.97;;;;;;;12.83;77.31;99808.69;4971642;28;19923;-81
2023/01/18 00:32:51;;;;;;;17.35;3.67;;;;;;;12.92;76.85;99815.59;4953212;28;20038;-79
2023/01/18 00:35:20;;;;;;;19.67;3.88;;;;;;;13.02;76.52;99815.28;4953512;28;20053;-80
2023/01/18 00:37:49;;;;;;;15.82;3.47;;;;;;;13.00;75.75;99804.66;4940336;28;20201;-82
2023/01/18 00:40:14;;;;;;;16.33;3.80;;;;;;;13.18;75.55;99816.81;4924396;28;20761;-82
2023/01/18 00:45:25;;;;;;;19.00;3.75;;;;;;;13.14;75.64;99797.50;4963438;28;20049;-81
2023/01/18 00:47:51;;;;;;;12.80;3.28;;;;;;;13.24;75.48;99805.22;4956044;28;20913;-82
2023/01/18 00:50:18;;;;;;;19.83;3.72;;;;;;;13.24;75.17;99800.66;4954411;28;20106;-83
2023/01/18 00:52:45;;;;;;;16.35;3.30;;;;;;;13.39;74.29;99786.22;4959233;28;20603;-82
2023/01/18 00:55:11;;;;;;;23.02;3.72;;;;;;;13.58;73.80;99803.53;4934782;28;20356;-80
2023/01/18 00:57:36;;;;;;;;;;;;;;;13.60;73.50;99799.63;4948906;28;20146;-81
2023/01/18 01:00:03;;;;;;;19.58;3.42;;;;;;;13.54;73.87;99805.81;4984896;28;19922;-81
2023/01/18 01:02:29;;;;;;;17.00;3.53;;;;;;;13.72;73.48;99813.38;4959695;28;20047;-81
2023/01/18 01:07:38;;;;;;;20.20;3.83;;;;;;;13.72;73.30;99803.41;4957820;28;20054;-83
2023/01/18 01:10:08;;;;;;;17.75;3.38;;;;;;;13.80;73.27;99809.66;4957398;28;20061;-82
2023/01/18 01:26:21;;;;;;;13.90;2.80;;;;;;;14.14;71.37;99801.44;4952843;28;20080;-83
2023/01/18 01:28:51;;;;;;;20.42;3.47;;;;;;;14.22;70.88;99795.00;4971046;28;20051;-83
2023/01/18 01:31:21;;;;;;;17.30;3.20;;;;;;;14.37;70.73;99786.69;4940872;28;20045;-82
2023/01/18 01:33:49;;;;;;;15.85;3.00;;;;;;;14.42;70.13;99781.50;4969406;28;20030;-82
2023/01/18 01:36:20;;;;;;;18.73;3.20;;;;;;;14.51;69.74;99787.53;4949923;28;20049;-79
2023/01/18 01:38:47;;;;;;;16.02;3.03;;;;;;;14.49;69.35;99771.53;4952196;28;20047;-79
2023/01/18 01:41:15;;;;;;;22.08;3.58;;;;;;;14.39;69.40;99781.09;4968944;28;20455;-84
2023/01/18 01:43:53;;;;;;;18.75;3.28;;;;;;;13.95;70.64;99769.78;4951585;28;20042;-83
2023/01/18 01:46:46;;;;;;;16.88;3.58;;;;;;;14.01;70.65;99784.38;4963702;28;20038;-82
2023/01/18 01:49:28;;;;;;;17.75;3.58;;;;;;;13.97;71.21;99788.50;4946093;28;20068;-82
2023/01/18 01:52:10;;;;;;;19.33;3.50;;;;;;;13.82;71.40;99805.72;4961947;28;20568;-82
2023/01/18 01:54:41;;;;;;;18.80;3.70;;;;;;;13.34;72.18;99772.50;4970809;28;20106;-83
2023/01/18 01:57:09;;;;;;;14.93;3.40;;;;;;;13.47;72.34;99797.69;4977209;28;20415;-79
2023/01/18 01:59:42;;;;;;;26.70;4.10;;;;;;;13.45;72.55;99791.66;4966137;28;20525;-80
2023/01/18 02:02:08;;;;;;;22.88;3.95;;;;;;;13.35;72.54;99780.41;4972150;28;20042;-80
2023/01/18 02:04:34;;;;;;;18.40;3.53;;;;;;;13.30;72.96;99799.91;4951792;28;20104;-83
2023/01/18 02:07:00;;;;;;;24.48;3.80;;;;;;;13.16;73.22;99786.47;4959616;28;20096;-82
2023/01/18 02:09:26;;;;;;;24.17;3.90;;;;;;;13.24;73.25;99789.84;4980214;28;20049;-82
2023/01/18 02:11:52;;;;;;;20.25;4.25;;;;;;;13.10;73.56;99767.34;4943277;28;20042;-81
2023/01/18 02:14:17;;;;;;;;;;;;;;;13.18;73.89;99777.19;4944585;28;20093;-80
2023/01/18 02:16:49;;;;;;;23.10;3.88;;;;;;;12.99;74.90;99785.97;4959613;28;19929;-81
2023/01/18 02:19:51;;;;;;;16.90;3.38;;;;;;;13.03;74.92;99779.16;4999811;28;20038;-82
2023/01/18 02:22:50;;;;;;;18.38;3.70;;;;;;;13.21;73.98;99781.34;4987447;28;20042;-80
2023/01/18 02:25:42;;;;;;;18.52;3.65;;;;;;;13.05;73.82;99758.19;4978665;28;20054;-81
2023/01/18 02:28:20;;;;;;;18.23;4.15;;;;;;;13.13;74.66;99778.78;4952204;28;20134;-83
2023/01/18 02:30:45;;;;;;;17.33;3.25;;;;;;;13.14;74.01;99770.50;4975405;28;20046;-81
2023/01/18 02:33:19;;;;;;;16.57;3.40;;;;;;;13.13;74.17;99778.78;4990070;28;20457;-82
2023/01/18 02:35:54;;;;;;;22.95;4.35;;;;;;;12.89;74.60;99779.06;4956500;28;20301;-81
2023/01/18 02:38:43;;;;;;;20.85;4.10;;;;;;;12.89;75.26;99780.94;4975021;28;20046;-84
2023/01/18 02:41:15;;;;;;;27.45;4.05;;;;;;;12.97;75.02;99777.22;4976558;28;20562;-82
2023/01/18 02:46:30;;;;;;;18.92;3.53;;;;;;;13.16;74.10;99773.84;4972379;28;20050;-81
2023/01/18 02:49:08;;;;;;;19.55;3.25;;;;;;;13.16;73.89;99779.22;4968473;28;20057;-81
2023/01/18 02:51:34;;;;;;;17.98;3.38;;;;;;;13.26;73.42;99774.28;4968654;28;20091;-80
2023/01/18 02:53:59;;;;;;;26.17;3.65;;;;;;;13.18;73.68;99771.78;4965386;28;20039;-80
2023/01/18 02:56:45;;;;;;;;;;;;;;;13.14;74.04;99786.69;4955261;28;20073;-80
2023/01/18 02:59:13;;;;;;;20.42;4.10;;;;;;;13.12;73.58;99799.56;4949956;28;19918;-80
2023/01/18 03:02:00;;;;;;;21.40;4.03;;;;;;;12.97;74.32;99796.13;4980151;28;20039;-80
2023/01/18 03:04:36;;;;;;;18.88;3.72;;;;;;;12.80;74.77;99801.00;4978931;28;20034;-81
2023/01/18 03:07:06;;;;;;;19.83;3.20;;;;;;;12.72;75.08;99801.97;4949178;28;20089;-81
2023/01/18 03:09:32;;;;;;;18.42;3.15;;;;;;;12.80;74.76;99791.03;4959656;28;20061;-81
2023/01/18 03:12:12;;;;;;;24.90;3.58;;;;;;;12.81;74.70;99773.81;4981926;28;20042;-82
2023/01/18 03:14:46;;;;;;;20.58;3.33;;;;;;;12.95;74.30;99773.94;4954823;28;20101;-81
2023/01/18 03:17:25;;;;;;;20.77;3.92;;;;;;;12.78;74.83;99774.22;4966833;28;20121;-80
2023/01/18 03:20:06;;;;;;;23.63;3.42;;;;;;;12.79;74.99;99773.19;4981195;28;20045;-79
2023/01/18 03:25:34;;;;;;;20.48;3.50;;;;;;;12.95;74.47;99768.53;4974179;28;20147;-82
2023/01/18 03:33:48;;;;;;;;;;;;;;;13.30;72.73;99756.69;4960095;28;20052;-82
2023/01/18 03:36:27;;;;;;;15.55;3.58;;;;;;;13.27;72.73;99765.22;4986299;28;19913;-81
2023/01/18 03:39:16;;;;;;;13.32;2.50;;;;;;;13.41;71.89;99759.84;4970591;28;20054;-81
2023/01/18 03:41:43;;;;;;;19.40;3.35;;;;;;;13.54;71.72;99788.78;4940627;28;20061;-81
2023/01/18 03:44:21;;;;;;;19.90;3.30;;;;;;;13.67;71.03;99786.97;4970421;28;20129;-80
2023/01/18 03:46:47;;;;;;;12.55;2.40;;;;;;;13.88;70.13;99774.34;4957209;28;20034;-81
2023/01/18 03:49:13;;;;;;;25.00;3.80;;;;;;;13.94;70.03;99778.94;4954891;28;20432;-81
2023/01/18 03:52:14;;;;;;;13.13;2.65;;;;;;;13.90;70.14;99785.78;4953833;28;20042;-82
2023/01/18 03:55:05;;;;;;;15.20;3.15;;;;;;;13.99;70.08;99787.25;4935903;28;20042;-83
2023/01/18 03:57:41;;;;;;;16.42;3.40;;;;;;;13.79;70.65;99778.25;4986650;28;20042;-82
2023/01/18 04:00:08;;;;;;;14.90;2.65;;;;;;;13.77;70.20;99772.25;4971234;28;20103;-84
2023/01/18 04:02:33;;;;;;;;;;;;;;;13.96;70.26;99797.66;4965709;28;20855;-81
2023/01/18 04:05:02;;;;;;;18.42;2.70;;;;;;;13.95;69.86;99799.50;4972578;28;20064;-82
2023/01/18 04:07:30;;;;;;;15.75;2.58;;;;;;;14.04;69.76;99806.38;4948041;28;20058;-83
2023/01/18 04:09:56;;;;;;;17.70;3.05;;;;;;;14.06;69.82;99796.22;4959281;28;20136;-81
2023/01/18 04:12:22;;;;;;;16.52;2.85;;;;;;;14.23;68.79;99802.06;4963492;28;20129;-82
2023/01/18 04:14:47;;;;;;;;;;;;;;;14.31;68.67;99806.47;4973777;28;20144;-81
2023/01/18 04:17:13;;;;;;;30.42;4.05;;;;;;;14.36;68.71;99804.78;4954102;28;20343;-84
2023/01/18 04:19:39;;;;;;;;;;;;;;;14.44;68.58;99806.44;4991993;28;20439;-82
2023/01/18 04:22:07;;;;;;;17.33;3.08;;;;;;;14.39;68.24;99791.91;4983521;28;19909;-82
2023/01/18 04:24:33;;;;;;;20.23;3.20;;;;;;;14.49;68.01;99787.75;4963487;28;20485;-83
2023/01/18 04:26:59;;;;;;;13.70;3.05;;;;;;;14.37;67.74;99775.88;4970362;28;20202;-81
2023/01/18 04:29:25;;;;;;;12.50;3.08;;;;;;;14.40;68.23;99774.63;4970228;28;20236;-83
2023/01/18 04:31:52;;;;;;;21.50;3.45;;;;;;;14.56;67.83;99796.75;4971347;28;20038;-82
2023/01/18 04:34:17;;;;;;;14.68;2.85;;;;;;;14.50;68.13;99797.53;4932159;28;20236;-83
2023/01/18 04:36:43;;;;;;;14.80;2.75;;;;;;;14.44;68.02;99792.94;4931444;28;20057;-84
2023/01/18 04:39:11;;;;;;;20.70;3.42;;;;;;;14.34;68.14;99795.22;4970886;28;20030;-82
2023/01/18 04:41:37;;;;;;;19.05;2.70;;;;;;;14.46;68.19;99792.72;4967022;28;20513;-82
2023/01/18 04:44:05;;;;;;;15.45;2.85;;;;;;;14.54;67.70;99795.28;4951408;28;20046;-83
2023/01/18 04:46:33;;;;;;;14.20;2.70;;;;;;;14.61;67.52;99801.53;4953790;28;20498;-83
2023/01/18 04:49:01;;;;;;;17.10;2.95;;;;;;;14.60;67.46;99799.00;4951408;28;20054;-83
2023/01/18 04:51:27;;;;;;;15.82;2.95;;;;;;;14.55;67.49;99795.06;4985719;28;20046;-82
2023/01/18 04:53:56;;;;;;;;;;;;;;;14.69;67.03;99803.19;4969608;28;20042;-81
2023/01/18 04:56:22;;;;;;;21.27;3.00;;;;;;;14.66;66.93;99780.09;4948494;28;19918;-82
2023/01/18 04:58:49;;;;;;;18.77;2.88;;;;;;;14.53;67.77;99794.41;4970336;28;20126;-83
2023/01/18 05:01:16;;;;;;;21.58;3.03;;;;;;;14.54;67.33;99798.81;4958616;28;20128;-83
2023/01/18 05:03:41;;;;;;;15.82;2.45;;;;;;;14.61;67.40;99795.25;4973093;28;20447;-84
2023/01/18 05:06:11;;;;;;;19.20;3.30;;;;;;;14.53;67.24;99780.88;4943767;28;20126;-84
2023/01/18 05:08:39;;;;;;;23.45;3.58;;;;;;;14.64;66.90;99800.28;4938743;28;20093;-83
2023/01/18 05:11:11;;;;;;;20.20;3.83;;;;;;;14.67;66.63;99784.44;4937485;28;20100;-82
2023/01/18 05:13:37;;;;;;;16.15;3.00;;;;;;;14.77;66.54;99794.84;4955965;28;20046;-82
2023/01/18 05:16:04;;;;;;;24.17;3.25;;;;;;;14.82;66.61;99796.91;4953353;28;20042;-84
2023/01/18 05:18:29;;;;;;;19.85;3.72;;;;;;;14.85;66.25;99794.63;4967389;28;20092;-83
2023/01/18 05:20:55;;;;;;;21.77;3.85;;;;;;;14.78;66.37;99780.28;4952381;28;20044;-84
2023/01/18 05:23:25;;;;;;;21.77;3.38;;;;;;;14.86;66.30;99792.75;4949237;28;20050;-83
2023/01/18 05:25:56;;;;;;;21.92;3.35;;;;;;;14.76;66.79;99782.34;4943336;28;20039;-85
2023/01/18 05:28:27;;;;;;;18.90;3.25;;;;;;;14.60;66.76;99766.56;4959057;28;20439;-84
2023/01/18 05:30:54;;;;;;;22.65;3.38;;;;;;;14.62;67.08;99786.13;4973727;28;20050;-84
2023/01/18 05:33:21;;;;;;;25.27;3.50;;;;;;;14.60;67.45;99790.91;4959566;28;20057;-85
2023/01/18 05:35:56;;;;;;;25.08;3.47;;;;;;;14.55;67.36;99797.75;4973452;28;20054;-84
2023/01/18 05:38:23;;;;;;;21.73;3.08;;;;;;;14.62;67.56;99818.56;4960723;28;20034;-84
2023/01/18 05:40:51;;;;;;;14.65;3.05;;;;;;;14.45;67.38;99769.44;4952392;28;20415;-84
2023/01/18 05:43:23;;;;;;;20.83;3.55;;;;;;;14.63;67.37;99804.00;4975905;28;20046;-85
2023/01/18 05:45:56;;;;;;;26.85;4.00;;;;;;;14.73;67.32;99807.13;4959643;28;20034;-85
2023/01/18 05:48:22;;;;;;;15.05;2.78;;;;;;;14.82;66.75;99805.03;4968975;28;20039;-85
2023/01/18 05:50:53;;;;;;;25.67;6.93;;;;;;;14.85;66.57;99800.03;4959073;28;20410;-83
2023/01/18 05:53:20;;;;;;;23.45;4.95;;;;;;;14.75;66.73;99802.34;4980050;28;20479;-85
2023/01/18 05:56:08;;;;;;;23.23;3.35;;;;;;;14.81;66.91;99811.50;4974968;28;20066;-85
2023/01/18 05:58:37;;;;;;;13.85;3.17;;;;;;;14.68;66.97;99805.06;4974978;28;20491;-86
2023/01/18 06:01:03;;;;;;;25.92;4.10;;;;;;;14.70;66.74;99813.81;4991690;28;20039;-85
2023/01/18 06:03:36;;;;;;;21.30;3.45;;;;;;;14.77;66.75;99820.03;4938958;28;20526;-83
2023/01/18 06:06:02;;;;;;;16.70;3.33;;;;;;;14.76;67.07;99825.66;4963172;28;20047;-86
2023/01/18 06:08:29;;;;;;;20.63;3.33;;;;;;;14.71;67.06;99822.75;4977293;28;20045;-85
2023/01/18 06:10:57;;;;;;;27.60;3.70;;;;;;;14.69;67.44;99814.00;4970521;28;20075;-85
2023/01/18 06:13:23;;;;;;;15.15;3.33;;;;;;;14.59;67.68;99800.06;4969758;28;20046;-86
2023/01/18 06:15:50;;;;;;;27.55;4.20;;;;;;;14.72;67.21;99808.16;4976116;28;20042;-84
2023/01/18 06:18:18;;;;;;;21.60;3.40;;;;;;;14.76;67.01;99801.28;4946480;28;20038;-85
2023/01/18 06:20:46;;;;;;;20.48;3.45;;;;;;;14.70;66.85;99783.19;4939160;28;21578;-85
2023/01/18 06:23:15;;;;;;;20.00;3.00;;;;;;;14.80;66.79;99783.59;4958627;28;20061;-86
2023/01/18 06:25:40;;;;;;;19.65;3.58;;;;;;;14.86;66.80;99809.00;4976355;28;20535;-84
2023/01/18 06:28:06;;;;;;;19.50;3.97;;;;;;;14.83;66.65;99798.59;4978729;28;20050;-84
2023/01/18 06:30:33;;;;;;;23.05;3.95;;;;;;;14.99;66.30;99822.50;4982179;28;20112;-81
2023/01/18 06:33:05;;;;;;;20.17;3.47;;;;;;;14.85;66.39;99808.16;4992117;28;20031;-81
2023/01/18 06:35:35;;;;;;;21.65;3.40;;;;;;;14.95;66.36;99813.16;4976082;28;20066;-81
2023/01/18 06:38:03;;;;;;;18.65;3.47;;;;;;;14.98;66.05;99802.75;4969384;28;20142;-84
2023/01/18 06:40:29;;;;;;;22.27;3.45;;;;;;;15.11;65.78;99822.69;4960788;28;20498;-83
2023/01/18 06:42:56;;;;;;;20.85;3.85;;;;;;;15.18;65.76;99832.47;4954485;28;20065;-83
2023/01/18 06:45:24;;;;;;;16.20;3.25;;;;;;;15.20;65.87;99827.69;4997752;28;20136;-82
2023/01/18 06:47:50;;;;;;;20.23;3.75;;;;;;;15.13;65.76;99834.16;4975693;28;20112;-81
2023/01/18 06:50:16;;;;;;;16.38;3.25;;;;;;;15.13;65.80;99848.53;4962778;28;20038;-81
2023/01/18 06:52:43;;;;;;;20.42;3.22;;;;;;;15.11;66.30;99855.19;4969801;28;20117;-76
2023/01/18 06:55:09;;;;;;;15.15;3.10;;;;;;;15.16;65.83;99855.38;4986554;28;20050;-77
2023/01/18 06:57:35;;;;;;;;;;;;;;;15.14;66.41;99866.41;4974990;28;20088;-77
2023/01/18 07:00:04;;;;;;;16.73;3.33;;;;;;;15.14;65.89;99852.06;4996365;28;19910;-79
2023/01/18 07:02:32;;;;;;;18.65;3.30;;;;;;;15.19;65.50;99869.34;5002981;28;20485;-82
2023/01/18 07:04:58;;;;;;;20.98;4.18;;;;;;;15.25;65.44;99851.41;4964846;28;20123;-79
2023/01/18 07:07:23;;;;;;;16.15;3.38;;;;;;;15.31;64.91;99883.09;4975033;28;20053;-78
2023/01/18 07:09:48;;;;;;;;;;;;;;;15.44;65.22;99870.53;4981763;28;20060;-81
2023/01/18 07:12:14;;;;;;;21.03;3.27;;;;;;;15.52;64.38;99889.25;4975729;28;19983;-79
2023/01/18 07:14:40;;;;;;;20.80;3.25;;;;;;;15.63;63.69;99885.91;4955318;28;20649;-79
2023/01/18 07:17:05;;;;;;;;;;;;;;;15.77;63.13;99875.91;4973223;28;20054;-79
2023/01/18 07:19:31;;;;;;;15.35;3.03;;;;;;;15.79;63.18;99877.34;4992164;28;19909;-79
2023/01/18 07:21:57;;;;;;;;;;;;;;;15.90;62.88;99899.44;4969159;28;20038;-78
2023/01/18 07:24:23;;;;;;;17.27;2.95;;;;;;;16.35;61.48;99883.13;4991613;28;19966;-79
2023/01/18 07:26:48;;;;;;;;;;;;;;;16.61;59.99;99891.09;4989205;28;20184;-82
2023/01/18 07:29:16;;;;;;;;;;;;;;;17.29;58.23;99889.53;4974171;28;19975;-78
2023/01/18 07:31:41;;;;;;;20.17;3.20;;;;;;;17.12;58.31;99889.28;4960562;28;20466;-77
2023/01/18 07:34:08;;;;;;;;;;;;;;;17.16;58.22;99884.22;4974414;28;20125;-80
2023/01/18 07:36:40;;;;;;;15.73;2.97;;;;;;;16.92;58.74;99861.47;4971864;28;19918;-80
2023/01/18 07:39:08;;;;;;;13.48;3.22;;;;;;;17.20;58.26;99882.72;4983353;28;20034;-81
2023/01/18 07:41:34;;;;;;;24.33;4.35;;;;;;;17.26;57.99;99884.56;4970568;28;20054;-78
2023/01/18 07:44:00;;;;;;;;;;;;;;;17.22;58.07;99886.06;4971630;28;20368;-77
2023/01/18 07:46:27;;;;;;;19.83;3.30;;;;;;;17.31;57.42;99879.28;4993427;28;20369;-81
2023/01/18 07:48:54;;;;;;;12.82;3.40;;;;;;;17.32;57.70;99886.38;5001140;28;20116;-81
2023/01/18 07:51:23;;;;;;;17.17;3.63;;;;;;;17.57;57.12;99885.50;4990187;28;20030;-84
2023/01/18 07:53:52;;;;;;;19.67;3.42;;;;;;;17.60;56.45;99869.56;4964569;28;20073;-82
2023/01/18 07:56:17;;;;;;;22.85;3.53;;;;;;;17.64;56.57;99880.81;4939475;28;20471;-81
2023/01/18 07:58:44;;;;;;;;;;;;;;;17.93;56.10;99906.44;4970589;28;20082;-79
2023/01/18 08:01:16;;;;;;;21.15;3.63;;;;;;;18.30;54.87;99887.34;4973493;28;20013;-79
2023/01/18 08:03:43;;;;;;;18.77;3.00;;;;;;;18.85;53.03;99908.16;4966840;28;20042;-78
2023/01/18 08:06:12;;;;;;;18.50;3.20;;;;;;;19.47;51.57;99914.00;4957528;28;20088;-79
2023/01/18 08:08:38;;;;;;;17.50;3.28;;;;;;;19.57;50.82;99924.31;4971734;28;20035;-79
2023/01/18 08:11:04;;;;;;;16.15;3.00;;;;;;;20.07;49.99;99918.34;4990897;28;20046;-84
2023/01/18 08:13:30;;;;;;;15.70;3.53;;;;;;;19.45;50.98;99921.59;4953887;28;20130;-83
2023/01/18 08:15:58;;;;;;;17.65;3.95;;;;;;;19.70;50.48;99912.38;4944254;28;20041;-79
2023/01/18 08:18:25;;;;;;;15.43;3.00;;;;;;;19.36;51.21;99910.22;4964133;28;20138;-79
2023/01/18 08:20:53;;;;;;;19.27;4.00;;;;;;;18.79;52.51;99915.34;4971801;28;20045;-78
2023/01/18 08:23:21;;;;;;;22.20;4.05;;;;;;;19.34;51.70;99900.63;4969434;28;20038;-78
2023/01/18 08:25:47;;;;;;;20.73;4.20;;;;;;;21.10;47.52;99912.88;4975849;28;20038;-82
2023/01/18 08:28:13;;;;;;;22.42;3.97;;;;;;;22.12;44.65;99908.03;4990904;28;20483;-81
2023/01/18 08:30:40;;;;;;;16.55;3.15;;;;;;;22.08;44.45;99924.16;4951951;28;20045;-81
2023/01/18 08:33:06;;;;;;;16.88;3.55;;;;;;;21.58;45.34;99930.59;4970672;28;20039;-78
2023/01/18 08:35:34;;;;;;;21.45;3.70;;;;;;;22.90;43.25;99914.09;4973359;28;20125;-83
2023/01/18 08:38:00;;;;;;;18.92;3.70;;;;;;;23.91;40.87;99917.03;4971632;28;20073;-79
2023/01/18 08:40:26;;;;;;;19.48;3.70;;;;;;;24.25;39.58;99919.38;4950570;28;20514;-82
2023/01/18 08:42:58;;;;;;;15.25;3.53;;;;;;;24.19;39.31;99924.03;4971589;28;20512;-79
2023/01/18 08:45:24;;;;;;;17.30;4.07;;;;;;;23.02;41.27;99933.16;4969116;28;20034;-80
2023/01/18 08:47:55;;;;;;;20.25;3.58;;;;;;;21.97;43.57;99903.22;4990559;28;20443;-80
2023/01/18 08:51:17;;;;;;;18.13;3.97;;;;;;;22.96;42.20;99918.53;4992169;28;20129;-84
2023/01/18 08:53:45;;;;;;;20.17;4.20;;;;;;;24.89;37.66;99877.75;4993116;28;20039;-80
2023/01/18 08:56:11;;;;;;;24.17;4.20;;;;;;;25.48;36.64;99912.94;4972472;28;20481;-79
2023/01/18 08:58:42;;;;;;;22.27;3.90;;;;;;;25.86;35.35;99877.59;4987575;28;20173;-82
2023/01/18 09:01:11;;;;;;;20.65;3.40;;;;;;;25.34;35.71;99905.53;4990158;28;20062;-80
2023/01/18 09:03:41;;;;;;;17.98;3.92;;;;;;;26.23;34.40;99912.16;4971946;28;20030;-80
2023/01/18 09:06:09;;;;;;;22.40;3.85;;;;;;;26.05;34.42;99910.03;4972460;28;20587;-83
2023/01/18 09:08:41;;;;;;;14.82;3.90;;;;;;;26.87;33.54;99909.56;4973188;28;20089;-84
2023/01/18 09:11:09;;;;;;;18.63;3.60;;;;;;;27.55;32.08;99881.91;4968020;28;20099;-83
2023/01/18 09:13:34;;;;;;;16.60;3.35;;;;;;;26.51;33.60;99893.25;4962080;28;20125;-81
2023/01/18 09:16:04;;;;;;;16.57;3.60;;;;;;;26.84;33.48;99893.63;4969263;28;20095;-80
2023/01/18 09:18:30;;;;;;;18.17;3.58;;;;;;;26.26;33.81;99892.28;4986653;28;20238;-79
2023/01/18 09:20:56;;;;;;;22.58;3.97;;;;;;;27.74;31.72;99889.44;4972731;28;20042;-79
2023/01/18 09:23:22;;;;;;;20.98;3.85;;;;;;;28.27;30.51;99875.53;4957097;28;20101;-80
2023/01/18 09:25:48;;;;;;;20.33;4.55;;;;;;;28.26;30.34;99857.34;4970547;28;20030;-79
2023/01/18 09:28:15;;;;;;;21.80;4.45;;;;;;;27.74;31.26;99872.88;4956602;28;20034;-79
2023/01/18 09:30:41;;;;;;;13.23;3.38;;;;;;;25.75;34.05;99888.91;4975885;28;20038;-78
2023/01/18 09:33:07;;;;;;;19.10;3.75;;;;;;;25.70;33.93;99873.22;4988291;28;20038;-80
2023/01/18 09:35:33;;;;;;;16.50;3.75;;;;;;;26.21;33.31;99880.50;4981018;28;20045;-81
2023/01/18 09:37:58;;;;;;;14.00;3.30;;;;;;;26.29;32.84;99866.94;4947367;28;20403;-79
2023/01/18 09:40:29;;;;;;;13.40;3.10;;;;;;;25.21;33.88;99865.66;4962338;28;20042;-80
2023/01/18 09:42:55;;;;;;;17.75;3.00;;;;;;;25.44;33.64;99875.22;4986353;28;20049;-83
2023/01/18 09:45:33;;;;;;;20.00;3.58;;;;;;;25.96;32.99;99878.69;4971952;28;20423;-80
2023/01/18 09:48:23;;;;;;;19.77;3.72;;;;;;;25.40;33.47;99882.38;4986126;28;20038;-79
2023/01/18 09:50:52;;;;;;;19.83;3.53;;;;;;;25.42;33.25;99899.44;4974002;28;20057;-83
2023/01/18 09:53:52;;;;;;;15.75;3.45;;;;;;;26.90;31.51;99881.41;4973005;28;20141;-80
2023/01/18 09:56:22;;;;;;;17.85;3.30;;;;;;;26.96;31.10;99885.78;4989452;28;20030;-80
2023/01/18 09:59:12;;;;;;;13.57;2.90;;;;;;;26.36;31.68;99871.31;4963514;28;20131;-80
2023/01/18 10:01:37;;;;;;;17.70;3.03;;;;;;;26.18;31.73;99868.09;4975880;28;20041;-80
2023/01/18 10:04:22;;;;;;;17.00;3.25;;;;;;;25.62;32.78;99862.81;4972502;28;20138;-79
2023/01/18 10:06:57;;;;;;;16.48;3.33;;;;;;;24.95;33.53;99854.63;4987521;28;20172;-80
2023/01/18 10:09:39;;;;;;;11.90;2.80;;;;;;;24.07;34.95;99869.34;4984653;28;20125;-80
2023/01/18 10:12:37;;;;;;;21.25;3.25;;;;;;;23.07;37.19;99875.63;4990027;28;20502;-82
2023/01/18 10:15:16;;;;;;;17.65;3.20;;;;;;;23.76;36.28;99871.13;4961751;28;20438;-81
2023/01/18 10:17:42;;;;;;;14.30;3.20;;;;;;;24.10;34.78;99871.53;4961705;28;20124;-83
2023/01/18 10:20:30;;;;;;;23.30;3.33;;;;;;;24.54;34.73;99862.88;4957440;28;20049;-81
2023/01/18 10:22:58;;;;;;;18.20;2.97;;;;;;;23.88;35.25;99835.22;4975261;28;20188;-80
2023/01/18 10:26:16;;;;;;;15.68;3.35;;;;;;;24.99;33.78;99843.94;4943987;28;20066;-81
2023/01/18 10:29:01;;;;;;;18.63;3.33;;;;;;;25.69;32.17;99855.09;4933754;29;20055;-80
2023/01/18 10:32:11;;;;;;;17.38;3.20;;;;;;;25.29;32.92;99845.84;4985942;28;20114;-80
2023/01/18 10:34:47;;;;;;;17.58;2.78;;;;;;;24.32;34.42;99856.75;4917234;29;20039;-81
2023/01/18 10:37:25;;;;;;;19.95;3.22;;;;;;;24.99;33.18;99846.69;4971878;28;20038;-83
2023/01/18 10:39:52;;;;;;;14.50;2.95;;;;;;;24.63;33.59;99838.41;4993210;28;20118;-79
2023/01/18 10:42:28;;;;;;;13.13;3.30;;;;;;;25.27;33.24;99845.28;4972557;28;20576;-81
2023/01/18 10:44:54;;;;;;;15.68;3.53;;;;;;;26.68;30.72;99857.88;4983695;28;20497;-79
2023/01/18 10:47:19;;;;;;;14.95;3.08;;;;;;;25.45;32.07;99858.47;4974199;28;20054;-79
2023/01/18 10:49:53;;;;;;;13.68;2.80;;;;;;;24.71;33.81;99859.88;4961101;28;20030;-80
2023/01/18 10:52:29;;;;;;;15.95;3.15;;;;;;;24.27;34.42;99859.50;4968695;28;20113;-77
2023/01/18 10:55:08;;;;;;;17.73;3.08;;;;;;;23.41;35.52;99842.38;4954386;28;20427;-80
2023/01/18 10:57:41;;;;;;;20.85;3.30;;;;;;;23.94;35.09;99867.09;4978099;28;20043;-79
2023/01/18 11:00:21;;;;;;;18.52;3.22;;;;;;;22.90;37.08;99870.25;4925154;28;20042;-81
2023/01/18 11:02:48;;;;;;;12.73;3.05;;;;;;;22.67;37.24;99865.13;4972194;28;20041;-79
2023/01/18 11:05:21;;;;;;;17.60;3.40;;;;;;;22.97;37.20;99876.34;4959410;28;20037;-80
2023/01/18 11:07:47;;;;;;;13.73;2.85;;;;;;;22.62;37.69;99892.47;4980001;28;20034;-78
2023/01/18 11:10:24;;;;;;;17.00;3.10;;;;;;;23.24;36.45;99885.59;4996231;28;20048;-79
2023/01/18 11:12:53;;;;;;;17.75;3.30;;;;;;;23.28;36.43;99893.03;4942523;28;20332;-78
2023/01/18 11:15:18;;;;;;;16.20;3.28;;;;;;;23.32;36.77;99893.31;4971106;28;20038;-78
2023/01/18 11:17:56;;;;;;;18.67;3.13;;;;;;;23.07;36.18;99893.97;4974954;28;20096;-78
2023/01/18 11:20:38;;;;;;;15.00;2.55;;;;;;;22.46;37.61;99886.81;4973545;28;20360;-78
2023/01/18 11:23:08;;;;;;;16.23;2.83;;;;;;;22.11;38.27;99881.75;4969244;28;20034;-80
2023/01/18 11:25:50;;;;;;;19.92;3.03;;;;;;;22.37;37.80;99888.38;4993198;28;20061;-80
2023/01/18 11:28:35;;;;;;;17.60;3.08;;;;;;;22.12;38.53;99886.13;4961939;28;20030;-79
2023/01/18 11:31:22;;;;;;;23.63;3.60;;;;;;;22.33;38.28;99892.69;4960988;28;20046;-78
2023/01/18 11:33:51;;;;;;;17.17;3.42;;;;;;;23.23;36.60;99906.72;4961999;28;20514;-79
2023/01/18 11:36:18;;;;;;;22.52;3.55;;;;;;;23.33;36.16;99890.31;4982684;28;20069;-80
2023/01/18 11:38:43;;;;;;;21.77;3.28;;;;;;;23.13;36.19;99873.72;4943138;28;20141;-79
2023/01/18 11:41:16;;;;;;;15.02;3.00;;;;;;;22.88;36.64;99888.03;4954996;28;20086;-79
2023/01/18 11:43:53;;;;;;;18.85;3.45;;;;;;;22.22;37.96;99877.25;4973138;28;20042;-80
2023/01/18 11:46:47;;;;;;;13.93;2.78;;;;;;;22.13;38.18;99898.75;4971151;28;20030;-79
2023/01/18 11:49:23;;;;;;;16.17;3.00;;;;;;;21.85;38.75;99891.56;4957133;28;20555;-80
2023/01/18 11:52:06;;;;;;;13.65;2.88;;;;;;;21.53;39.24;99875.81;4986302;28;20464;-79
2023/01/18 11:54:41;;;;;;;14.32;2.95;;;;;;;21.18;40.34;99884.28;4968871;28;20384;-79
2023/01/18 11:57:11;;;;;;;15.40;3.13;;;;;;;20.87;40.74;99881.91;4938156;29;20502;-82
2023/01/18 11:59:41;;;;;;;18.42;3.15;;;;;;;20.93;40.41;99851.94;4962950;28;20038;-80
2023/01/18 12:02:36;;;;;;;15.55;2.55;;;;;;;21.26;40.58;99873.78;4945816;28;20042;-79
2023/01/18 12:05:21;;;;;;;;;;;;;;;21.50;39.96;99882.63;4982091;28;20042;-80
2023/01/18 12:08:25;;;;;;;15.63;3.13;;;;;;;21.32;40.40;99891.06;4966637;28;19918;-77
2023/01/18 12:11:25;;;;;;;14.07;2.60;;;;;;;21.19;40.77;99894.13;4978333;28;20097;-79
2023/01/18 12:14:14;;;;;;;18.50;3.47;;;;;;;21.44;40.08;99852.72;4969825;28;20049;-79
2023/01/18 12:17:11;;;;;;;21.23;3.13;;;;;;;21.27;40.71;99869.94;4970618;28;20035;-87
2023/01/18 12:19:51;;;;;;;14.73;2.90;;;;;;;21.99;39.92;99875.59;4965188;28;20505;-78